Time;durP1;ratioP1;P1;durP2;ratioP2;P2;SDS_P1;SDS_P2;PMS_P1;PMS_P2;Temp;Humidity;BMP_temperature;BMP_pressure;BME280_temperature;BME280_humidity;BME280_pressure;Samples;Min_cycle;Max_cycle;Signal;HPM_P1;HPM_P2
2022/06/18 06:59:11;;;;;;;1.38;0.82;;;19.90;1.00;;;;;;6190315;23;20024;-88
2022/06/18 07:01:38;;;;;;;3.85;0.77;;;19.80;1.00;;;;;;6216024;23;20016;-87
2022/06/18 07:04:09;;;;;;;4.43;0.95;;;19.90;1.00;;;;;;6190005;23;20027;-87
2022/06/18 07:06:36;;;;;;;3.70;0.88;;;19.90;1.00;;;;;;6191025;23;20016;-88
2022/06/18 07:09:31;;;;;;;2.53;1.00;;;20.00;1.00;;;;;;6191959;23;20027;-91
2022/06/18 07:15:46;;;;;;;4.00;0.75;;;20.00;1.00;;;;;;6241241;22;20103;-87
2022/06/18 07:18:17;;;;;;;2.55;1.02;;;20.00;1.00;;;;;;6219238;23;20020;-87
2022/06/18 07:20:44;;;;;;;2.60;0.90;;;19.80;1.00;;;;;;6219615;23;20408;-85
2022/06/18 07:23:11;;;;;;;1.02;0.73;;;19.90;1.00;;;;;;6215535;23;20020;-86
2022/06/18 07:25:39;;;;;;;4.30;0.75;;;19.90;1.00;;;;;;6214063;23;20119;-88
2022/06/18 07:55:34;;;;;;;2.95;0.82;;;20.30;1.00;;;;;;6155591;23;20054;-88
2022/06/18 07:58:48;;;;;;;1.05;0.65;;;20.20;1.00;;;;;;6248787;23;20035;-89
2022/06/18 08:02:24;;;;;;;4.30;0.77;;;20.40;1.00;;;;;;6224626;23;20408;-89
2022/06/18 08:06:18;;;;;;;;;;;;;;;;;;;;;
2022/06/18 08:22:27;;;;;;;2.75;0.93;;;20.40;1.00;;;;;;6064306;23;20021;-92
2022/06/18 09:28:23;;;;;;;1.42;0.90;;;20.90;1.00;;;;;;6148031;22;20073;-89
2022/06/18 09:31:31;;;;;;;3.35;0.65;;;20.90;1.00;;;;;;6193414;23;20418;-89
2022/06/18 09:34:16;;;;;;;3.72;1.25;;;21.00;1.00;;;;;;6176525;23;20017;-89
2022/06/18 09:36:46;;;;;;;0.80;0.50;;;20.90;1.00;;;;;;6138047;23;20341;-89
2022/06/18 09:39:37;;;;;;;4.25;0.98;;;21.00;1.00;;;;;;6161558;23;20357;-91
2022/06/18 09:42:28;;;;;;;1.63;0.95;;;21.00;1.00;;;;;;6161835;23;20021;-94
2022/06/18 09:45:29;;;;;;;1.75;1.25;;;21.10;1.00;;;;;;6185809;23;20031;-89
2022/06/18 09:48:04;;;;;;;2.00;0.88;;;21.20;1.00;;;;;;6220473;23;20043;-88
2022/06/18 09:50:42;;;;;;;1.40;0.75;;;21.20;1.00;;;;;;6221868;23;20421;-85
2022/06/18 10:01:45;;;;;;;;;;;21.40;1.00;;;;;;6072221;23;20139;-90
2022/06/18 10:11:11;;;;;;;1.35;0.47;;;21.70;1.00;;;;;;6092795;23;20506;-88
2022/06/18 10:14:11;;;;;;;4.30;0.88;;;21.90;1.00;;;;;;6095632;23;20018;-88
2022/06/18 10:17:05;;;;;;;6.53;0.98;;;22.00;1.00;;;;;;6067908;23;20023;-88
2022/06/18 10:19:53;;;;;;;1.08;0.47;;;22.00;1.00;;;;;;6121774;23;20034;-87
2022/06/18 10:22:42;;;;;;;1.23;0.47;;;22.10;1.00;;;;;;6091986;23;20029;-88
2022/06/18 10:25:18;;;;;;;2.60;0.93;;;22.20;1.00;;;;;;6082641;23;20022;-88
2022/06/18 10:32:27;;;;;;;5.57;1.00;;;22.40;1.00;;;;;;5871982;24;20022;-92
2022/06/18 10:45:27;;;;;;;1.85;0.95;;;22.60;1.00;;;;;;6227569;22;20024;-93
2022/06/18 12:45:25;;;;;;;6.95;1.10;;;25.10;1.00;;;;;;6230723;22;20030;-87
2022/06/18 12:48:20;;;;;;;3.33;1.10;;;24.60;1.00;;;;;;6246273;23;20031;-86
2022/06/18 12:51:04;;;;;;;3.90;1.15;;;24.70;1.00;;;;;;6245541;23;20015;-89
2022/06/18 12:53:46;;;;;;;4.90;1.10;;;24.90;1.00;;;;;;6231472;23;20017;-86
2022/06/18 12:56:22;;;;;;;5.05;1.73;;;25.00;1.00;;;;;;6194894;23;20017;-87
2022/06/18 12:59:26;;;;;;;5.25;1.55;;;25.10;1.00;;;;;;6218060;23;20047;-87
2022/06/18 13:02:10;;;;;;;6.53;1.33;;;24.30;1.00;;;;;;6217934;23;20075;-87
2022/06/18 13:05:20;;;;;;;4.72;1.30;;;24.50;1.00;;;;;;6216906;23;20448;-84
2022/06/18 13:08:12;;;;;;;3.75;1.73;;;24.70;1.00;;;;;;6191057;23;20038;-90
2022/06/18 13:11:00;;;;;;;3.58;0.90;;;24.50;1.00;;;;;;6166317;23;20040;-88
2022/06/18 13:13:38;;;;;;;6.45;1.27;;;24.60;1.00;;;;;;6190630;23;20103;-89
2022/06/18 13:16:21;;;;;;;5.68;1.27;;;24.50;1.00;;;;;;6191257;23;20021;-89
2022/06/18 13:19:17;;;;;;;4.78;0.95;;;24.50;1.00;;;;;;6190515;23;20025;-88
2022/06/18 13:21:44;;;;;;;5.50;1.30;;;24.70;1.00;;;;;;6217768;23;20388;-88
2022/06/18 13:29:57;;;;;;;3.65;0.98;;;24.90;1.00;;;;;;6191087;23;20016;-89
2022/06/18 13:32:37;;;;;;;5.32;1.30;;;24.80;1.00;;;;;;6166580;23;20348;-91
2022/06/18 13:35:07;;;;;;;8.95;1.52;;;24.50;1.00;;;;;;6167827;23;20059;-89
2022/06/18 13:37:54;;;;;;;5.70;1.63;;;25.00;1.00;;;;;;6192352;23;20020;-90
2022/06/18 13:40:48;;;;;;;7.55;1.73;;;24.90;1.00;;;;;;6191343;23;20025;-87
2022/06/18 13:43:18;;;;;;;4.18;1.60;;;24.40;1.00;;;;;;6166555;23;20107;-90
2022/06/18 13:45:54;;;;;;;3.17;1.38;;;24.40;1.00;;;;;;6190416;23;20441;-88
2022/06/18 13:48:52;;;;;;;7.03;1.23;;;24.40;1.00;;;;;;6217411;23;20017;-87
2022/06/18 13:51:31;;;;;;;3.65;1.50;;;24.70;1.00;;;;;;6190070;23;20025;-87
2022/06/18 13:54:17;;;;;;;6.80;1.45;;;24.80;1.00;;;;;;6216408;23;20043;-87
2022/06/18 13:57:01;;;;;;;6.35;2.33;;;25.20;1.00;;;;;;6190330;23;20023;-90
2022/06/18 13:59:30;;;;;;;4.22;1.02;;;24.70;1.00;;;;;;6191039;23;20020;-88
2022/06/18 14:02:11;;;;;;;9.25;0.82;;;24.80;1.00;;;;;;6190235;23;20025;-88
2022/06/18 14:04:45;;;;;;;4.97;1.27;;;24.80;1.00;;;;;;6190785;23;20025;-91
2022/06/18 14:07:26;;;;;;;7.53;1.30;;;24.90;1.00;;;;;;6191060;23;20087;-89
2022/06/18 14:10:12;;;;;;;12.45;2.78;;;24.20;1.00;;;;;;6193036;23;20017;-88
2022/06/18 14:12:41;;;;;;;5.93;1.40;;;24.20;1.00;;;;;;6190498;23;20020;-89
2022/06/18 14:15:32;;;;;;;6.97;1.05;;;23.90;1.00;;;;;;6191250;23;20352;-88
2022/06/18 14:18:02;;;;;;;9.00;1.42;;;24.10;1.00;;;;;;6190577;23;20453;-89
2022/06/18 14:20:39;;;;;;;2.67;1.17;;;24.50;1.00;;;;;;6166540;23;20099;-88
2022/06/18 14:23:37;;;;;;;3.80;0.77;;;24.50;1.00;;;;;;6153833;23;20104;-92
2022/06/18 15:09:51;;;;;;;3.45;1.88;;;24.10;1.00;;;;;;6221069;23;20078;-89
2022/06/18 15:12:34;;;;;;;6.53;1.55;;;23.80;1.00;;;;;;6197876;23;20509;-90
2022/06/18 15:15:06;;;;;;;5.20;1.70;;;23.90;1.00;;;;;;6194542;23;20051;-91
2022/06/18 15:17:53;;;;;;;6.80;1.88;;;23.90;1.00;;;;;;6204424;22;20040;-91
2022/06/18 15:23:00;;;;;;;8.30;1.95;;;23.70;1.00;;;;;;6241250;22;20009;-91
2022/06/18 15:25:38;;;;;;;8.02;1.83;;;23.50;1.00;;;;;;6185852;23;20405;-89
2022/06/18 15:28:11;;;;;;;5.60;1.67;;;23.40;1.00;;;;;;6166575;23;20016;-90
2022/06/18 15:30:58;;;;;;;7.90;1.92;;;23.50;1.00;;;;;;6190285;23;20021;-92
2022/06/18 18:13:49;;;;;;;5.38;1.52;;;22.40;1.00;;;;;;6215699;23;20089;-94
2022/06/18 18:17:51;;;;;;;9.60;2.13;;;22.30;1.00;;;;;;6193164;23;20096;-91
2022/06/18 18:20:19;;;;;;;10.77;2.05;;;21.60;1.00;;;;;;6180139;23;20019;-92
2022/06/18 18:23:05;;;;;;;8.50;1.27;;;22.00;1.00;;;;;;6190744;23;20016;-91
2022/06/18 18:30:34;;;;;;;;;;;;;;;;;;;;;
2022/06/18 18:37:02;;;;;;;;;;;;;;;;;;;;;
2022/06/18 18:40:29;;;;;;;6.05;1.20;;;21.90;1.00;;;;;;6227520;23;20020;-90
2022/06/18 18:44:05;;;;;;;;;;;;;;;;;;;;;
2022/06/18 18:51:42;;;;;;;;;;;;;;;;;;;;;
2022/06/18 19:18:47;;;;;;;5.68;1.35;;;19.90;1.00;;;;;;6249400;22;20099;-90
2022/06/18 19:32:05;;;;;;;4.03;0.80;;;19.90;1.00;;;;;;6244731;22;19919;-92
2022/06/18 21:14:56;;;;;;;4.82;0.95;;;18.70;1.00;;;;;;6206458;22;20499;-89
2022/06/18 21:26:59;;;;;;;9.75;2.20;;;18.80;1.00;;;;;;6117546;23;20064;-89
2022/06/18 22:20:14;;;;;;;;;;;;;;;;;;;;;
2022/06/18 23:28:46;;;;;;;;;;;;;;;;;;;;;
2022/06/18 23:55:26;;;;;;;;;;;;;;;;;;;;;
